Heilind Electronics
eStore | heilindasia.com | line card | product news | locations | value-added services | contact us | careers | legal
Search for:        
TE Connectivity



 

 

 

 

Heavy Duty Connectors

Heavy Duty Connectors for use in harsh environment covering protection degrees up to IP 69k, current rating 10 A to250 A and up to 216 contacts.

TE Heavy Duty Connectors

TE Connectivity (TE) introduces Heavy Duty Connectors (HDC), a connectivity solution for harsh environments. The Ingress Protection rating of up to IP69K and 1000 hours corrosion resistance test approval ensure long lasting performance by providing longer machine uptime, quick installation, and protection against environmental hazards including water, dust, chemicals, temperature, vibration, mechanical shock and high pressure. Due to its modular design, heavy duty connectors can help to reduce space requirements in applications providing highly customizable solutions. By combining products from TEs portfolio of cable fittings, hoods, contacts, male or female inserts and housings, HDC can be assembled to almost any configuration for heavy duty applications.

HDC products have been adopted by a wide range of industries, including the wind energy, robotics, construction machinery, packaging, printing and tobacco machinery as well as railway and automation industries.

HDC products consist of three key elements: inserts, contacts and hoods and housing. The inserts and contacts are modular and assembled together to provide electrical performance, and the hoods and housings are made of metal or thermoplastic, robustly structured to provide mechanical and environmental protection for the connector. The waterproof anti-corrosion housing ensures that TE's HDC products work under harsh environments and even meet customers' outdoor connection needs.

TE's HDC product series support a wide range of electrical requirements, e.g. a rated current from 5A to 350A. The modular system provides a high degree of flexibility for customers to customize their solutions for different applications, without the need for modifications.





Features:

  • Designed for reliably performing under the most demanding operating and harsh environmental conditions
  • Rectangular, multiple position pin and socket connectors. Each connector is designated by four components: base, hood, and male & female modular inserts.
  • Most popular housing shell sizes are 1, 3, 4, 5, 6, and 8
  • Modular systems offer power and signal transmission in one connector.
  • Pin and socket insert with fixing frame (housing), top or bottom of which can be assembled.
  • Choice of loading pin and socket inserts in a fixing frame.

Applications:

  • Machinery
  • Automation
  • Robotics
  • Rail
  • Energy Distribution
  • Renewable Energy
  • Construction Machinery
  • Professional Light and Sound
Part Number View Inventory
T1010033100-000 H3A-KDB
T1010062100-000 H6B-KDB IP65 HOOD & HOUSING
T1010102100-000 H10B-KDB IP65 HOOD & HOUSING
T1010162100-000 H16B-KDB IP65 HOOD & HOUSING
T1010242100-000 H24B-KDB IP65 HOOD & HOUSING
T1210100116-000 H10B-TS-PG16 IP65 HOOD & HOUSING
T1210100120-000 H10B-TS-M20 IP65 HOOD & HOUSING
T1210100125-000 H10B-TS-M25 IP65 HOOD & HOUSING
T1210100125-000 H10B-TS-M25
T1210160121-000 H16B-TS-PG21 IP65 HOOD & HOUSING
T1210160125-000 H16B-TS-M25
T1210240121-000 H24B-TS-PG21 IP65 HOOD & HOUSING
T1210240125-000 H24B-TS-M25 IP65 HOOD & HOUSING
T1210320129-000 H32B-TS-PG29 IP65 HOOD & HOUSING
T1210320140-000 H32B-TS-M40 IP65 HOOD & HOUSING
T1220100116-000 H10B-TG-PG16 IP65 HOOD & HOUSING
T1220100125-000 H10B-TG-M25 IP65 HOOD & HOUSING
T1220160125-000 H16B-TG-M25
T1220240129-000 H24B-TG-PG29 IP65 HOOD & HOUSING
T1230100121-000 H10B-TSH-PG21 IP65 HOOD & HOUSING
T1230100132-000 H10B-TSH-M32 IP65 HOOD & HOUSING
T1230160140-100 H16B-TSH-M40 IP65 HOOD & HOUSING
T1230240132-000 H24B-TSH-M32
T1230242140-000 H24B-TSH-M40 IP65 HOOD & HOUSING
T1230246132-000 H24B-TSH-M32 IP65 HOOD & HOUSING
T1240100129-000 H10B-TGH-PG29 IP65 HOOD & HOUSING
T1240160132-000 H16B-TGH-M32 IP65 HOOD & HOUSING
T1240160221-000 H16B-TGH-2PG21 IP65 HOOD & HOUSING
T1240240132-000 H24B-TGH-M32
T1240240221-000 H24B-TGH-2PG21 IP65 HOOD & HOUSING
T1240240229-000 H24B-TGH-2PG29 IP65 HOOD & HOUSING
T1250102116-000 H10B-TSB-PG16 IP65 HOOD & HOUSING
T1250102125-000 H10B-TSB-M25 IP65 HOOD & HOUSING
T1250162121-000 H16B-TSB-PG21 IP65 HOOD & HOUSING
T1250242121-000 H24B-TSB-PG21 IP65 HOOD & HOUSING
T1250245132-000 H24B-TSH-M32 IP65 HOOD & HOUSING
T1260162121-000 H16B-TGB-PG21 IP65 HOOD & HOUSING
T1270102121-000 H10B-TSBH-PG21 IP65 HOOD & HOUSING
T1270102129-000 H10B-TSBH-PG29 IP65 HOOD & HOUSING
T1270162129-000 H16B-TSBH-PG29 IP65 HOOD & HOUSING
T1270242129-000 H24B-TSBH-PG29 IP65 HOOD & HOUSING
T1280162129-000 H16B-TGBH-PG29 IP65 HOOD & HOUSING
T1280242129-000 H24B-TGBH-PG29 IP65 HOOD & HOUSING
T1310060113-000 H6B-TS-PG13.5 IP65 HOOD & HOUSING
T1310060116-000 H6B-TS-PG16 IP65 HOOD & HOUSING
T1310060120-000 H6B-TS-M20 IP65 HOOD & HOUSING
T1310060125-000 H6B-TS-M25 IP65 HOOD & HOUSING
T1310100116-000 H10B-TS-RO-PG16 IP65 HOOD & HOUSING
T1310100125-000 H10B-TS-RO-M25 IP65 HOOD & HOUSING
T1310160121-000 H16B-TS-RO-PG21 IP65 HOOD & HOUSING
T1310160125-000 H16B-TS-RO-M25 IP65 HOOD & HOUSING
T1310160132-000 H16B-TS-RO-M32 IP65 HOOD & HOUSING
T1310240132-000 H24B-TS-RO-M32 IP65 HOOD & HOUSING
T1310480129-000 H48B-TS-RO-PG29 IP65 HOOD & HOUSING
T1310480136-000 H48B-TS-RO-PG36 IP65 HOOD & HOUSING
T1319030120-000 H3A-MTS-M20
T1320060113-000 H6B-TG-PG13.5 IP65 HOOD & HOUSING
T1320060116-000 H6B-TG-PG16 IP65 HOOD & HOUSING
T1320060120-000 H6B-TG-M20 IP65 HOOD & HOUSING
T1320060125-000 H6B-TG-M25
T1320100116-000 H10B-TG-RO-PG16 IP65 HOOD & HOUSING
T1320100125-000 H10B-TG-RO-M25 IP65 HOOD & HOUSING
T1320480136-000 H48B-TG-RO-PG36 IP65 HOOD & HOUSING
T1329030120-000 H3A-MTG-M20
T1330060121-000 H6B-TSH-PG21 IP65 HOOD & HOUSING
T1330060125-000 H6B-TSH-M25 IP65 HOOD & HOUSING
T1330060132-000 H6B-TSH-M32 IP65 HOOD & HOUSING
T1330100121-000 H10B-TSH-RO-PG21 IP65 HOOD & HOUSING
T1330160129-000 H16B-TSH-RO-PG29 IP65 HOOD & HOUSING
T1330240121-000 H24B-TSH-RO-PG21 IP65 HOOD & HOUSING
T1340060121-000 H6B-TGH-PG21 IP65 HOOD & HOUSING
T1340060132-000 H6B-TGH-M32 IP65 HOOD & HOUSING
T1340100121-000 H10B-TGH-RO-PG21 IP65 HOOD & HOUSING
T1340100132-000 H10B-TGH-RO-M32 IP65 HOOD & HOUSING
T1410102000-000 H10B-AG IP65 HOOD & HOUSING
T1410162000-000 H16B-AG IP65 HOOD & HOUSING
T1410162000-100 H16B-AG IP65 HOOD & HOUSING
T1410242000-000 H24B-AG IP65 HOOD & HOUSING
T1430100000-000 H10B-AD-BO IP65 HOOD & HOUSING
T1430101000-000 H10B-ADM-BO IP65 HOOD & HOUSING
T1430160000-000 H16B-AD-BO IP65 HOOD & HOUSING
T1430240000-000 H24B-AD-BO IP65 HOOD & HOUSING
T1440102116-000 H10B-SGR-PG16 IP65 HOOD & HOUSING
T1440162121-000 H16B-SGR-PG21 IP65 HOOD & HOUSING
T1440242121-000 H24B-SGR-PG21 IP65 HOOD & HOUSING
T1440242125-000 H24B-SGR-M25 IP65 HOOD & HOUSING
T1460100116-000 H10B-SDR-BO-PG16 IP65 HOOD & HOUSING
T1460100216-000 H10B-SDR-BO-2PG16 IP65 HOOD & HOUSING
T1460240121-000 H24B-SDR-BO-PG21 IP65 HOOD & HOUSING
T1470102232-000 H10B-SGRH-2M32 IP65 HOOD & HOUSING
T1470162221-000 H16B-SGRH-2PG21 IP65 HOOD & HOUSING
T1470162232-000 H16B-SGRH-2M32 IP65 HOOD & HOUSING
T1470242232-000 H24B-SGRH-2M32 IP65 HOOD & HOUSING
T1490100221-000 H10B-SDRH-BO-2PG21 IP65 HOOD & HOUSING
T1490160129-000 H16B-SDRH-BO-PG29 IP65 HOOD & HOUSING
T1490160221-000 H16B-SDRH-BO-2PG21 IP65 HOOD & HOUSING
T1490240129-000 H24B-SDRH-BO-PG29 IP65 HOOD & HOUSING
T1490240232-000 H24B-SDRH-BO-2M32 IP65 HOOD & HOUSING
T1500063000-000 H6B-AG IP65 HOOD & HOUSING
T1500103000-000 H10B-AG-LB IP65 HOOD & HOUSING
T1500163000-000 H16B-AG-LB IP65 HOOD & HOUSING
T1509030000-000 H3A-MAG
T1510063000-000 H6B-AD IP65 HOOD & HOUSING
T1510103000-000 H10B-AD-LB IP65 HOOD & HOUSING
T1510103001-000 H10B-ADM-LB IP65 HOOD & HOUSING
T1510163000-000 H16B-AD-LB IP65 HOOD & HOUSING
T1510243000-000 H24B-AD-LB IP65 HOOD & HOUSING
T1510243100-000 H24B-ADM-LB IP65 HOOD & HOUSING
T1510482000-000 H48B-AD-LB IP65 HOOD & HOUSING
T1610063116-000 H6B-SGR-PG16 IP65 HOOD & HOUSING
T1610063220-000 H6B-SGR-2M20 IP65 HOOD & HOUSING
T1620063116-000 H6B-SDR-PG16 IP65 HOOD & HOUSING
T1620063120-000 H6B-SDR-M20 IP65 HOOD & HOUSING
T1620063216-000 H6B-SDR-2PG16 IP65 HOOD & HOUSING
T1620063220-000 H6B-SDR-2M20 IP65 HOOD & HOUSING
T1620103116-000 H10B-SDR-LB-PG16 IP65 HOOD & HOUSING
T1620103216-000 H10B-SDR-LB-2PG16 IP65 HOOD & HOUSING
T1620163121-000 H16B-SDR-LB-PG21 IP65 HOOD & HOUSING
T1620163225-000 H16B-SDR-LB-2M25 IP65 HOOD & HOUSING
T1650163132-000 H16B-SGRH-LB-M32 IP65 HOOD & HOUSING
T1660063221-000 H6B-SDRH-2PG21 IP65 HOOD & HOUSING
T1660103225-000 H10B-SDRH-LB-2M25 IP65 HOOD & HOUSING
T1660103232-000 H10B-SDRH-LB-2M32 IP65 HOOD & HOUSING
T1660163129-000 H16B-SDRH-LB-PG29 IP65 HOOD & HOUSING
T1770063121-000 H6B-TBFH-PG21 IP65 HOOD & HOUSING
T1770063125-000 H6B-TBFH-M25 IP65 HOOD & HOUSING
T1930240129-000 H24B-TSBH-PG29 IP65 HOOD & HOUSING
T1990100000-000 H10BPR-KDB IP65 HOOD & HOUSING
T2010032101-000 HA-003-M HA INSERT
T2010032201-000 HA-003-F HA INSERT
T2010033101-000 HA-003-MS
T2010033201-000 HA-003-FS
T2010033201-000 HA-003-FS HA INSERT
T2010042101-000 HA-004-M HA INSERT
T2010042201-000 HA-004-F HA INSERT
T2010043101-000 HA-004-MS HA INSERT
T2010043201-000 HA-004-FS HA INSERT
T2010102101-000 HA-010-M HA INSERT
T2010102201-000 HA-010-F HA INSERT
T2010162101-000 HA-016-M HA INSERT
T2010162201-000 HA-016-F HA INSERT
T2010164101-000 HA-016-MC HA INSERT
T2010164201-000 HA-016-FC HA INSERT
T2010322101-000 HA-016-M(17-32) HA INSERT
T2010322201-000 HA-016-F(17-32) HA INSERT
T2040062101-000 HE-006-M HE INSERT
T2040062201-000 HE-006-F HE INSERT
T2040063101-000 HE-006-MS HE INSERT
T2040063201-000 HE-006-FS HE INSERT
T2040064101-000 HE-006-MC HE INSERT
T2040064201-000 HE-006-FC HE INSERT
T2040102101-000 HE-010-M HE INSERT
T2040102201-000 HE-010-F HE INSERT
T2040103101-000 HE-010-MS HE INSERT
T2040103201-000 HE-010-FS HE INSERT
T2040162101-000 HE-016-M HE INSERT
T2040162201-000 HE-016-F HE INSERT
T2040163101-000 HE-016-MS HE INSERT
T2040163201-000 HE-016-FS HE INSERT
T2040242101-000 HE-024-M HE INSERT
T2040242201-000 HE-024-F HE INSERT
T2040243101-000 HE-024-MS HE INSERT
T2040243201-000 HE-024-FS HE INSERT
T2040322201-000 HE-016-F(17-32) HE INSERT
T2040323101-000 HE-016-MS(17-32) HE INSERT
T2040482101-000 HE-024-M (25-48) HE INSERT
T2040483101-000 HE-024-MS (25-48) HE INSERT
T2040483201-000 HE-024-FS (25-48) HE INSERT

See also:
Heavy Duty Connectors Brochure (.pdf) for more product information, specifications, applications and ordering information.



© 2017 Heilind Electronics, Inc
phone: (800) 400-7041
fax: (978) 658-0278
Site search: 
  site map |  about us |  contact us  | 
FacebookTwitterLinkedInGoogle+Connect 2 Heilind BlogEstore